sensor_id;sensor_type;location;lat;lon;timestamp;temperature;humidity
4293;DHT22;2160;51.172;6.808;2022-12-31T05:01:38;18.20;99.90
4293;DHT22;2160;51.172;6.808;2022-12-31T05:04:05;18.10;99.90
4293;DHT22;2160;51.172;6.808;2022-12-31T05:06:32;17.90;99.90
4293;DHT22;2160;51.172;6.808;2022-12-31T05:09:00;18.00;99.90
4293;DHT22;2160;51.172;6.808;2022-12-31T05:11:27;18.00;99.90
4293;DHT22;2160;51.172;6.808;2022-12-31T05:13:53;18.00;99.90
4293;DHT22;2160;51.172;6.808;2022-12-31T05:16:20;18.10;99.90
4293;DHT22;2160;51.172;6.808;2022-12-31T05:18:49;18.20;99.90
4293;DHT22;2160;51.172;6.808;2022-12-31T05:21:19;18.20;99.90
4293;DHT22;2160;51.172;6.808;2022-12-31T05:23:46;18.10;99.90
4293;DHT22;2160;51.172;6.808;2022-12-31T05:26:14;18.20;99.90
4293;DHT22;2160;51.172;6.808;2022-12-31T05:28:41;18.20;99.90
4293;DHT22;2160;51.172;6.808;2022-12-31T05:31:09;18.10;99.90
4293;DHT22;2160;51.172;6.808;2022-12-31T05:33:36;18.20;99.90
4293;DHT22;2160;51.172;6.808;2022-12-31T05:36:05;18.20;99.90
4293;DHT22;2160;51.172;6.808;2022-12-31T05:38:32;18.20;99.90
4293;DHT22;2160;51.172;6.808;2022-12-31T05:41:00;18.40;99.90
4293;DHT22;2160;51.172;6.808;2022-12-31T05:43:27;18.40;99.90
4293;DHT22;2160;51.172;6.808;2022-12-31T05:45:54;18.30;99.90
4293;DHT22;2160;51.172;6.808;2022-12-31T05:48:22;18.20;99.90
4293;DHT22;2160;51.172;6.808;2022-12-31T05:50:49;18.20;99.90
4293;DHT22;2160;51.172;6.808;2022-12-31T05:53:17;18.20;99.90
4293;DHT22;2160;51.172;6.808;2022-12-31T05:55:45;18.30;99.90
4293;DHT22;2160;51.172;6.808;2022-12-31T05:58:13;18.20;99.90
4293;DHT22;2160;51.172;6.808;2022-12-31T06:00:40;18.10;99.90
4293;DHT22;2160;51.172;6.808;2022-12-31T06:03:08;18.30;99.90
4293;DHT22;2160;51.172;6.808;2022-12-31T06:05:40;18.20;99.90
4293;DHT22;2160;51.172;6.808;2022-12-31T06:08:07;18.10;99.90
4293;DHT22;2160;51.172;6.808;2022-12-31T06:10:36;18.20;99.90
4293;DHT22;2160;51.172;6.808;2022-12-31T06:13:03;18.30;99.90
4293;DHT22;2160;51.172;6.808;2022-12-31T06:15:30;18.30;99.90
4293;DHT22;2160;51.172;6.808;2022-12-31T06:17:57;18.30;99.90
4293;DHT22;2160;51.172;6.808;2022-12-31T06:20:24;18.30;99.90
4293;DHT22;2160;51.172;6.808;2022-12-31T06:22:51;18.30;99.90
4293;DHT22;2160;51.172;6.808;2022-12-31T06:25:18;18.40;99.90
4293;DHT22;2160;51.172;6.808;2022-12-31T06:27:46;18.50;99.90
4293;DHT22;2160;51.172;6.808;2022-12-31T06:30:13;18.40;99.90
4293;DHT22;2160;51.172;6.808;2022-12-31T06:32:40;18.30;99.90
4293;DHT22;2160;51.172;6.808;2022-12-31T06:35:07;18.40;99.90
4293;DHT22;2160;51.172;6.808;2022-12-31T06:37:34;18.40;99.90
4293;DHT22;2160;51.172;6.808;2022-12-31T06:40:01;18.50;99.90
4293;DHT22;2160;51.172;6.808;2022-12-31T06:42:28;18.60;99.90
4293;DHT22;2160;51.172;6.808;2022-12-31T06:44:57;18.50;99.90
4293;DHT22;2160;51.172;6.808;2022-12-31T06:47:24;18.50;99.90
4293;DHT22;2160;51.172;6.808;2022-12-31T06:49:52;18.40;99.90
4293;DHT22;2160;51.172;6.808;2022-12-31T06:52:19;18.50;99.90
4293;DHT22;2160;51.172;6.808;2022-12-31T06:54:47;18.60;99.90
4293;DHT22;2160;51.172;6.808;2022-12-31T06:57:14;18.60;99.90
4293;DHT22;2160;51.172;6.808;2022-12-31T06:59:42;18.50;99.90
4293;DHT22;2160;51.172;6.808;2022-12-31T07:05:27;18.50;99.90
4293;DHT22;2160;51.172;6.808;2022-12-31T07:08:11;18.60;99.90
4293;DHT22;2160;51.172;6.808;2022-12-31T07:10:44;18.70;99.90
4293;DHT22;2160;51.172;6.808;2022-12-31T07:16:44;18.60;99.90
4293;DHT22;2160;51.172;6.808;2022-12-31T07:19:21;18.60;99.90
4293;DHT22;2160;51.172;6.808;2022-12-31T07:21:53;18.60;99.90
4293;DHT22;2160;51.172;6.808;2022-12-31T07:24:21;18.60;99.90
4293;DHT22;2160;51.172;6.808;2022-12-31T07:27:06;18.50;99.90
4293;DHT22;2160;51.172;6.808;2022-12-31T07:29:45;18.50;99.90
4293;DHT22;2160;51.172;6.808;2022-12-31T07:32:25;18.60;99.90
4293;DHT22;2160;51.172;6.808;2022-12-31T07:35:00;18.50;99.90
4293;DHT22;2160;51.172;6.808;2022-12-31T07:37:36;18.50;99.90
4293;DHT22;2160;51.172;6.808;2022-12-31T07:40:13;18.60;99.90
4293;DHT22;2160;51.172;6.808;2022-12-31T07:42:56;18.60;99.90
4293;DHT22;2160;51.172;6.808;2022-12-31T07:45:30;18.70;99.90
4293;DHT22;2160;51.172;6.808;2022-12-31T07:48:02;18.70;99.90
4293;DHT22;2160;51.172;6.808;2022-12-31T07:50:30;18.70;99.90
4293;DHT22;2160;51.172;6.808;2022-12-31T07:52:59;18.80;99.90
4293;DHT22;2160;51.172;6.808;2022-12-31T07:55:26;18.80;99.90
4293;DHT22;2160;51.172;6.808;2022-12-31T07:57:58;19.00;99.90
4293;DHT22;2160;51.172;6.808;2022-12-31T08:00:27;19.20;99.90
4293;DHT22;2160;51.172;6.808;2022-12-31T08:03:15;19.10;99.90
4293;DHT22;2160;51.172;6.808;2022-12-31T08:05:49;19.00;99.90
4293;DHT22;2160;51.172;6.808;2022-12-31T08:08:26;18.80;99.90
4293;DHT22;2160;51.172;6.808;2022-12-31T08:11:05;18.70;99.90
4293;DHT22;2160;51.172;6.808;2022-12-31T08:13:33;18.80;99.90
4293;DHT22;2160;51.172;6.808;2022-12-31T08:16:01;18.90;99.90
4293;DHT22;2160;51.172;6.808;2022-12-31T08:18:28;19.00;99.90
4293;DHT22;2160;51.172;6.808;2022-12-31T08:21:04;19.00;99.90
4293;DHT22;2160;51.172;6.808;2022-12-31T08:23:40;19.20;99.90
4293;DHT22;2160;51.172;6.808;2022-12-31T08:26:26;19.10;99.90
4293;DHT22;2160;51.172;6.808;2022-12-31T08:29:08;19.00;99.90
4293;DHT22;2160;51.172;6.808;2022-12-31T08:31:44;19.00;99.90
4293;DHT22;2160;51.172;6.808;2022-12-31T08:34:20;19.00;99.90
4293;DHT22;2160;51.172;6.808;2022-12-31T08:36:54;18.90;99.90
4293;DHT22;2160;51.172;6.808;2022-12-31T08:39:36;19.00;99.90
4293;DHT22;2160;51.172;6.808;2022-12-31T08:42:16;18.90;99.90
4293;DHT22;2160;51.172;6.808;2022-12-31T08:44:50;19.00;99.90
4293;DHT22;2160;51.172;6.808;2022-12-31T08:47:30;19.00;99.90
4293;DHT22;2160;51.172;6.808;2022-12-31T08:49:58;19.00;99.90
4293;DHT22;2160;51.172;6.808;2022-12-31T08:52:26;19.00;99.90
4293;DHT22;2160;51.172;6.808;2022-12-31T08:54:55;19.00;99.90
4293;DHT22;2160;51.172;6.808;2022-12-31T08:57:26;19.00;99.90
4293;DHT22;2160;51.172;6.808;2022-12-31T09:00:05;19.00;99.90
4293;DHT22;2160;51.172;6.808;2022-12-31T09:02:49;19.00;99.90
4293;DHT22;2160;51.172;6.808;2022-12-31T09:05:21;19.10;99.90
4293;DHT22;2160;51.172;6.808;2022-12-31T09:08:03;19.20;99.90
4293;DHT22;2160;51.172;6.808;2022-12-31T09:10:39;19.20;99.90
4293;DHT22;2160;51.172;6.808;2022-12-31T09:13:15;19.10;99.90
4293;DHT22;2160;51.172;6.808;2022-12-31T09:15:51;19.30;99.90
4293;DHT22;2160;51.172;6.808;2022-12-31T09:18:22;19.20;99.90
4293;DHT22;2160;51.172;6.808;2022-12-31T09:20:50;19.20;99.90
4293;DHT22;2160;51.172;6.808;2022-12-31T09:23:17;19.00;99.90
4293;DHT22;2160;51.172;6.808;2022-12-31T09:25:59;19.20;99.90
4293;DHT22;2160;51.172;6.808;2022-12-31T09:28:36;19.30;99.90
4293;DHT22;2160;51.172;6.808;2022-12-31T09:31:10;19.30;99.90
4293;DHT22;2160;51.172;6.808;2022-12-31T09:33:43;19.30;99.90
4293;DHT22;2160;51.172;6.808;2022-12-31T09:36:18;19.20;99.90
4293;DHT22;2160;51.172;6.808;2022-12-31T09:38:53;19.20;99.90
4293;DHT22;2160;51.172;6.808;2022-12-31T09:42:00;19.30;99.90
4293;DHT22;2160;51.172;6.808;2022-12-31T09:45:08;19.10;99.90
4293;DHT22;2160;51.172;6.808;2022-12-31T09:51:14;19.20;99.90
4293;DHT22;2160;51.172;6.808;2022-12-31T09:53:57;19.20;99.90
4293;DHT22;2160;51.172;6.808;2022-12-31T09:56:30;19.40;99.90
4293;DHT22;2160;51.172;6.808;2022-12-31T09:59:04;19.40;99.90
4293;DHT22;2160;51.172;6.808;2022-12-31T10:01:44;19.30;99.90
4293;DHT22;2160;51.172;6.808;2022-12-31T10:04:34;19.30;99.90
4293;DHT22;2160;51.172;6.808;2022-12-31T10:07:35;19.40;99.90
4293;DHT22;2160;51.172;6.808;2022-12-31T10:10:12;19.40;99.90
4293;DHT22;2160;51.172;6.808;2022-12-31T10:13:00;19.40;99.90
4293;DHT22;2160;51.172;6.808;2022-12-31T10:18:59;19.40;99.90
4293;DHT22;2160;51.172;6.808;2022-12-31T10:21:47;19.30;99.90
4293;DHT22;2160;51.172;6.808;2022-12-31T10:24:32;19.40;99.90
4293;DHT22;2160;51.172;6.808;2022-12-31T10:27:19;19.50;99.90
4293;DHT22;2160;51.172;6.808;2022-12-31T10:29:57;19.30;99.90
4293;DHT22;2160;51.172;6.808;2022-12-31T10:32:37;19.30;99.90
4293;DHT22;2160;51.172;6.808;2022-12-31T10:35:20;19.40;99.90
4293;DHT22;2160;51.172;6.808;2022-12-31T10:37:52;19.60;99.90
4293;DHT22;2160;51.172;6.808;2022-12-31T10:46:29;19.40;99.90
4293;DHT22;2160;51.172;6.808;2022-12-31T11:01:21;19.60;99.90
4293;DHT22;2160;51.172;6.808;2022-12-31T11:18:14;19.50;99.90
4293;DHT22;2160;51.172;6.808;2022-12-31T11:43:51;19.70;99.90
4293;DHT22;2160;51.172;6.808;2022-12-31T12:17:41;19.60;99.90
4293;DHT22;2160;51.172;6.808;2022-12-31T12:21:06;19.60;99.90
4293;DHT22;2160;51.172;6.808;2022-12-31T12:23:56;19.70;99.90
4293;DHT22;2160;51.172;6.808;2022-12-31T12:27:47;19.80;99.90
4293;DHT22;2160;51.172;6.808;2022-12-31T12:30:36;19.70;99.90
4293;DHT22;2160;51.172;6.808;2022-12-31T12:37:56;19.50;99.90
4293;DHT22;2160;51.172;6.808;2022-12-31T12:41:11;19.60;99.90
4293;DHT22;2160;51.172;6.808;2022-12-31T12:44:48;19.60;99.90
4293;DHT22;2160;51.172;6.808;2022-12-31T13:21:57;19.60;99.90
4293;DHT22;2160;51.172;6.808;2022-12-31T13:24:51;19.30;99.90
4293;DHT22;2160;51.172;6.808;2022-12-31T14:35:22;18.90;99.90
4293;DHT22;2160;51.172;6.808;2022-12-31T14:37:56;18.90;99.90
4293;DHT22;2160;51.172;6.808;2022-12-31T14:40:44;18.80;99.90
4293;DHT22;2160;51.172;6.808;2022-12-31T14:43:21;18.80;99.90
4293;DHT22;2160;51.172;6.808;2022-12-31T14:45:55;18.60;99.90
4293;DHT22;2160;51.172;6.808;2022-12-31T14:48:38;18.60;99.90
4293;DHT22;2160;51.172;6.808;2022-12-31T14:51:10;18.70;99.90
4293;DHT22;2160;51.172;6.808;2022-12-31T14:53:38;18.80;99.90
4293;DHT22;2160;51.172;6.808;2022-12-31T14:56:23;18.70;99.90
4293;DHT22;2160;51.172;6.808;2022-12-31T14:58:55;18.80;99.90
4293;DHT22;2160;51.172;6.808;2022-12-31T15:01:22;18.80;99.90
4293;DHT22;2160;51.172;6.808;2022-12-31T15:03:50;18.90;99.90
4293;DHT22;2160;51.172;6.808;2022-12-31T15:06:40;19.00;99.90
4293;DHT22;2160;51.172;6.808;2022-12-31T15:09:33;19.20;99.90
4293;DHT22;2160;51.172;6.808;2022-12-31T15:12:16;19.00;99.90
4293;DHT22;2160;51.172;6.808;2022-12-31T15:14:57;18.90;99.90
4293;DHT22;2160;51.172;6.808;2022-12-31T15:17:33;18.80;99.90
4293;DHT22;2160;51.172;6.808;2022-12-31T15:20:17;18.70;99.90
4293;DHT22;2160;51.172;6.808;2022-12-31T15:22:50;18.60;99.90
4293;DHT22;2160;51.172;6.808;2022-12-31T15:25:23;18.60;99.90
4293;DHT22;2160;51.172;6.808;2022-12-31T15:27:52;18.50;99.90
4293;DHT22;2160;51.172;6.808;2022-12-31T15:30:31;18.50;99.90
4293;DHT22;2160;51.172;6.808;2022-12-31T15:33:01;18.50;99.90
4293;DHT22;2160;51.172;6.808;2022-12-31T15:35:30;18.60;99.90
4293;DHT22;2160;51.172;6.808;2022-12-31T15:38:00;18.50;99.90
4293;DHT22;2160;51.172;6.808;2022-12-31T15:40:28;18.50;99.90
4293;DHT22;2160;51.172;6.808;2022-12-31T15:42:59;18.60;99.90
4293;DHT22;2160;51.172;6.808;2022-12-31T15:45:32;18.50;99.90
4293;DHT22;2160;51.172;6.808;2022-12-31T15:48:04;18.50;99.90
4293;DHT22;2160;51.172;6.808;2022-12-31T15:50:34;18.40;99.90
4293;DHT22;2160;51.172;6.808;2022-12-31T15:53:04;18.40;99.90
4293;DHT22;2160;51.172;6.808;2022-12-31T15:55:36;18.30;99.90
4293;DHT22;2160;51.172;6.808;2022-12-31T15:58:10;18.40;99.90
4293;DHT22;2160;51.172;6.808;2022-12-31T16:00:46;18.40;99.90
4293;DHT22;2160;51.172;6.808;2022-12-31T16:03:20;18.40;99.90
4293;DHT22;2160;51.172;6.808;2022-12-31T16:05:48;18.50;99.90
4293;DHT22;2160;51.172;6.808;2022-12-31T16:08:19;18.50;99.90
4293;DHT22;2160;51.172;6.808;2022-12-31T16:10:47;18.30;99.90
4293;DHT22;2160;51.172;6.808;2022-12-31T16:13:20;18.40;99.90
4293;DHT22;2160;51.172;6.808;2022-12-31T16:15:49;18.50;99.90
4293;DHT22;2160;51.172;6.808;2022-12-31T16:18:17;18.50;99.90
4293;DHT22;2160;51.172;6.808;2022-12-31T16:20:45;18.40;99.90
4293;DHT22;2160;51.172;6.808;2022-12-31T16:23:20;18.40;99.90
4293;DHT22;2160;51.172;6.808;2022-12-31T16:25:48;18.50;99.90
4293;DHT22;2160;51.172;6.808;2022-12-31T16:28:19;18.40;99.90
4293;DHT22;2160;51.172;6.808;2022-12-31T16:30:56;18.50;99.90
4293;DHT22;2160;51.172;6.808;2022-12-31T16:33:24;18.50;99.90
4293;DHT22;2160;51.172;6.808;2022-12-31T16:35:54;18.50;99.90
4293;DHT22;2160;51.172;6.808;2022-12-31T16:38:30;18.40;99.90
4293;DHT22;2160;51.172;6.808;2022-12-31T16:41:16;18.40;99.90
4293;DHT22;2160;51.172;6.808;2022-12-31T16:43:44;18.40;99.90
4293;DHT22;2160;51.172;6.808;2022-12-31T16:46:15;18.40;99.90
4293;DHT22;2160;51.172;6.808;2022-12-31T16:48:45;18.40;99.90
4293;DHT22;2160;51.172;6.808;2022-12-31T16:51:16;18.30;99.90
4293;DHT22;2160;51.172;6.808;2022-12-31T16:53:45;18.40;99.90
4293;DHT22;2160;51.172;6.808;2022-12-31T16:56:21;18.30;99.90
4293;DHT22;2160;51.172;6.808;2022-12-31T16:58:53;18.40;99.90
4293;DHT22;2160;51.172;6.808;2022-12-31T17:01:24;18.40;99.90
4293;DHT22;2160;51.172;6.808;2022-12-31T17:03:56;18.30;99.90
4293;DHT22;2160;51.172;6.808;2022-12-31T17:06:24;18.30;99.90
4293;DHT22;2160;51.172;6.808;2022-12-31T17:09:07;18.10;99.90
4293;DHT22;2160;51.172;6.808;2022-12-31T17:11:40;18.10;99.90
4293;DHT22;2160;51.172;6.808;2022-12-31T17:14:12;18.10;99.90
4293;DHT22;2160;51.172;6.808;2022-12-31T17:16:44;18.20;99.90
4293;DHT22;2160;51.172;6.808;2022-12-31T17:19:30;18.20;99.90
4293;DHT22;2160;51.172;6.808;2022-12-31T17:21:57;18.10;99.90
4293;DHT22;2160;51.172;6.808;2022-12-31T17:24:26;18.10;99.90
4293;DHT22;2160;51.172;6.808;2022-12-31T17:26:53;18.10;99.90
4293;DHT22;2160;51.172;6.808;2022-12-31T17:29:21;17.90;99.90
4293;DHT22;2160;51.172;6.808;2022-12-31T17:31:57;18.00;99.90
4293;DHT22;2160;51.172;6.808;2022-12-31T17:34:29;17.80;99.90
4293;DHT22;2160;51.172;6.808;2022-12-31T17:36:59;17.80;99.90
4293;DHT22;2160;51.172;6.808;2022-12-31T17:39:43;17.80;99.90
4293;DHT22;2160;51.172;6.808;2022-12-31T17:42:10;17.90;99.90
4293;DHT22;2160;51.172;6.808;2022-12-31T17:44:40;17.90;99.90
4293;DHT22;2160;51.172;6.808;2022-12-31T17:47:09;17.90;99.90
4293;DHT22;2160;51.172;6.808;2022-12-31T17:49:39;17.70;99.90
4293;DHT22;2160;51.172;6.808;2022-12-31T17:52:11;17.50;99.90
4293;DHT22;2160;51.172;6.808;2022-12-31T17:54:39;17.60;99.90
4293;DHT22;2160;51.172;6.808;2022-12-31T17:57:19;17.70;99.90
4293;DHT22;2160;51.172;6.808;2022-12-31T17:59:47;17.80;99.90
4293;DHT22;2160;51.172;6.808;2022-12-31T18:02:14;17.70;99.90
4293;DHT22;2160;51.172;6.808;2022-12-31T18:04:41;17.80;99.90
4293;DHT22;2160;51.172;6.808;2022-12-31T18:07:08;17.90;99.90
4293;DHT22;2160;51.172;6.808;2022-12-31T18:09:34;17.90;99.90
4293;DHT22;2160;51.172;6.808;2022-12-31T18:12:05;17.80;99.90
4293;DHT22;2160;51.172;6.808;2022-12-31T18:14:32;18.00;99.90
4293;DHT22;2160;51.172;6.808;2022-12-31T18:16:59;17.90;99.90
4293;DHT22;2160;51.172;6.808;2022-12-31T18:19:26;17.80;99.90
4293;DHT22;2160;51.172;6.808;2022-12-31T18:21:53;17.80;99.90
4293;DHT22;2160;51.172;6.808;2022-12-31T18:24:24;17.60;99.90
4293;DHT22;2160;51.172;6.808;2022-12-31T18:26:51;17.60;99.90
4293;DHT22;2160;51.172;6.808;2022-12-31T18:29:21;17.60;99.90
4293;DHT22;2160;51.172;6.808;2022-12-31T18:31:48;17.60;99.90
4293;DHT22;2160;51.172;6.808;2022-12-31T18:34:16;17.70;99.90
4293;DHT22;2160;51.172;6.808;2022-12-31T18:36:44;17.70;99.90
4293;DHT22;2160;51.172;6.808;2022-12-31T18:39:12;17.80;99.90
4293;DHT22;2160;51.172;6.808;2022-12-31T18:41:40;17.50;99.90
4293;DHT22;2160;51.172;6.808;2022-12-31T18:44:11;17.40;99.90
4293;DHT22;2160;51.172;6.808;2022-12-31T18:46:39;17.40;99.90
4293;DHT22;2160;51.172;6.808;2022-12-31T18:49:07;17.50;99.90
4293;DHT22;2160;51.172;6.808;2022-12-31T18:51:34;17.70;99.90
4293;DHT22;2160;51.172;6.808;2022-12-31T18:54:02;17.50;99.90
4293;DHT22;2160;51.172;6.808;2022-12-31T18:56:29;17.50;99.90
4293;DHT22;2160;51.172;6.808;2022-12-31T18:58:56;17.60;99.90
4293;DHT22;2160;51.172;6.808;2022-12-31T19:01:26;17.40;99.90
4293;DHT22;2160;51.172;6.808;2022-12-31T19:03:57;17.50;99.90
4293;DHT22;2160;51.172;6.808;2022-12-31T19:06:24;17.50;99.90
4293;DHT22;2160;51.172;6.808;2022-12-31T19:08:51;17.60;99.90
4293;DHT22;2160;51.172;6.808;2022-12-31T19:11:18;17.50;99.90
4293;DHT22;2160;51.172;6.808;2022-12-31T19:13:46;17.50;99.90
4293;DHT22;2160;51.172;6.808;2022-12-31T19:16:14;17.50;99.90
4293;DHT22;2160;51.172;6.808;2022-12-31T19:18:42;17.40;99.90
4293;DHT22;2160;51.172;6.808;2022-12-31T19:21:18;17.40;99.90
4293;DHT22;2160;51.172;6.808;2022-12-31T19:23:47;17.50;99.90
4293;DHT22;2160;51.172;6.808;2022-12-31T19:26:16;17.70;99.90
4293;DHT22;2160;51.172;6.808;2022-12-31T19:28:44;17.70;99.90
4293;DHT22;2160;51.172;6.808;2022-12-31T19:31:11;17.80;99.90
4293;DHT22;2160;51.172;6.808;2022-12-31T19:33:38;17.70;99.90
4293;DHT22;2160;51.172;6.808;2022-12-31T19:36:08;17.70;99.90
4293;DHT22;2160;51.172;6.808;2022-12-31T19:38:40;17.50;99.90
4293;DHT22;2160;51.172;6.808;2022-12-31T19:41:13;17.60;99.90
4293;DHT22;2160;51.172;6.808;2022-12-31T19:43:41;17.50;99.90
4293;DHT22;2160;51.172;6.808;2022-12-31T19:46:10;17.40;99.90
4293;DHT22;2160;51.172;6.808;2022-12-31T19:48:37;17.40;99.90
4293;DHT22;2160;51.172;6.808;2022-12-31T19:51:07;17.50;99.90
4293;DHT22;2160;51.172;6.808;2022-12-31T19:53:34;17.40;99.90
4293;DHT22;2160;51.172;6.808;2022-12-31T19:56:03;17.30;99.90
4293;DHT22;2160;51.172;6.808;2022-12-31T19:58:31;17.40;99.90
4293;DHT22;2160;51.172;6.808;2022-12-31T20:00:59;17.40;99.90
4293;DHT22;2160;51.172;6.808;2022-12-31T20:03:26;17.30;99.90
4293;DHT22;2160;51.172;6.808;2022-12-31T20:06:01;17.40;99.90
4293;DHT22;2160;51.172;6.808;2022-12-31T20:08:28;17.50;99.90
4293;DHT22;2160;51.172;6.808;2022-12-31T20:10:55;17.50;99.90
4293;DHT22;2160;51.172;6.808;2022-12-31T20:13:25;17.50;99.90
4293;DHT22;2160;51.172;6.808;2022-12-31T20:15:53;17.40;99.90
4293;DHT22;2160;51.172;6.808;2022-12-31T20:18:20;17.40;99.90
4293;DHT22;2160;51.172;6.808;2022-12-31T20:20:47;17.50;99.90
4293;DHT22;2160;51.172;6.808;2022-12-31T20:23:15;17.60;99.90
4293;DHT22;2160;51.172;6.808;2022-12-31T20:25:42;17.70;99.90
4293;DHT22;2160;51.172;6.808;2022-12-31T20:28:09;17.70;99.90
4293;DHT22;2160;51.172;6.808;2022-12-31T20:30:38;17.60;99.90
4293;DHT22;2160;51.172;6.808;2022-12-31T20:33:05;17.70;99.90
4293;DHT22;2160;51.172;6.808;2022-12-31T20:35:32;17.60;99.90
4293;DHT22;2160;51.172;6.808;2022-12-31T20:37:59;17.60;99.90
4293;DHT22;2160;51.172;6.808;2022-12-31T20:40:26;17.60;99.90
4293;DHT22;2160;51.172;6.808;2022-12-31T20:42:53;17.80;99.90
4293;DHT22;2160;51.172;6.808;2022-12-31T20:45:19;17.80;99.90
4293;DHT22;2160;51.172;6.808;2022-12-31T20:47:48;17.80;99.90
4293;DHT22;2160;51.172;6.808;2022-12-31T20:50:15;17.80;99.90
4293;DHT22;2160;51.172;6.808;2022-12-31T20:52:42;17.90;99.90
4293;DHT22;2160;51.172;6.808;2022-12-31T20:55:09;18.00;99.90
4293;DHT22;2160;51.172;6.808;2022-12-31T20:57:38;17.90;99.90
4293;DHT22;2160;51.172;6.808;2022-12-31T21:00:06;17.90;99.90
4293;DHT22;2160;51.172;6.808;2022-12-31T21:02:33;18.00;99.90
4293;DHT22;2160;51.172;6.808;2022-12-31T21:05:02;18.00;99.90
4293;DHT22;2160;51.172;6.808;2022-12-31T21:07:29;17.90;99.90
4293;DHT22;2160;51.172;6.808;2022-12-31T21:09:56;18.00;99.90
4293;DHT22;2160;51.172;6.808;2022-12-31T21:12:22;18.10;99.90
4293;DHT22;2160;51.172;6.808;2022-12-31T21:15:07;18.30;99.90
4293;DHT22;2160;51.172;6.808;2022-12-31T21:17:34;18.30;99.60
4293;DHT22;2160;51.172;6.808;2022-12-31T21:20:04;18.30;99.90
4293;DHT22;2160;51.172;6.808;2022-12-31T21:22:31;18.30;99.60
4293;DHT22;2160;51.172;6.808;2022-12-31T21:24:59;18.30;99.10
4293;DHT22;2160;51.172;6.808;2022-12-31T21:27:26;18.40;99.20
4293;DHT22;2160;51.172;6.808;2022-12-31T21:29:54;18.40;99.30
4293;DHT22;2160;51.172;6.808;2022-12-31T21:32:21;18.60;99.10
4293;DHT22;2160;51.172;6.808;2022-12-31T21:34:48;18.40;99.00
4293;DHT22;2160;51.172;6.808;2022-12-31T21:37:16;18.40;99.90
4293;DHT22;2160;51.172;6.808;2022-12-31T21:39:43;18.40;98.70
4293;DHT22;2160;51.172;6.808;2022-12-31T21:42:10;18.50;98.40
4293;DHT22;2160;51.172;6.808;2022-12-31T21:44:37;18.20;98.50
4293;DHT22;2160;51.172;6.808;2022-12-31T21:47:04;18.20;99.20
4293;DHT22;2160;51.172;6.808;2022-12-31T21:49:48;18.30;99.00
4293;DHT22;2160;51.172;6.808;2022-12-31T21:52:16;18.20;98.90
4293;DHT22;2160;51.172;6.808;2022-12-31T21:54:52;18.10;99.10
4293;DHT22;2160;51.172;6.808;2022-12-31T21:57:36;18.10;99.40
4293;DHT22;2160;51.172;6.808;2022-12-31T22:00:04;18.30;99.30
4293;DHT22;2160;51.172;6.808;2022-12-31T22:02:49;18.10;99.30
4293;DHT22;2160;51.172;6.808;2022-12-31T22:05:34;18.20;99.30
4293;DHT22;2160;51.172;6.808;2022-12-31T22:08:03;18.10;99.30
4293;DHT22;2160;51.172;6.808;2022-12-31T22:10:31;18.10;99.90
4293;DHT22;2160;51.172;6.808;2022-12-31T22:12:58;18.10;99.90
4293;DHT22;2160;51.172;6.808;2022-12-31T22:15:25;18.00;99.90
4293;DHT22;2160;51.172;6.808;2022-12-31T22:17:52;18.00;99.90
4293;DHT22;2160;51.172;6.808;2022-12-31T22:20:19;18.00;99.90
4293;DHT22;2160;51.172;6.808;2022-12-31T22:22:46;18.20;99.90
4293;DHT22;2160;51.172;6.808;2022-12-31T22:25:14;18.20;99.80
4293;DHT22;2160;51.172;6.808;2022-12-31T22:27:41;18.20;99.90
4293;DHT22;2160;51.172;6.808;2022-12-31T22:30:09;18.20;99.90
4293;DHT22;2160;51.172;6.808;2022-12-31T22:32:36;18.20;99.90
4293;DHT22;2160;51.172;6.808;2022-12-31T22:35:03;18.10;99.90
4293;DHT22;2160;51.172;6.808;2022-12-31T22:37:30;18.10;99.90
4293;DHT22;2160;51.172;6.808;2022-12-31T22:39:57;18.10;99.90
4293;DHT22;2160;51.172;6.808;2022-12-31T22:42:25;18.10;99.90
4293;DHT22;2160;51.172;6.808;2022-12-31T22:44:52;18.20;99.90
4293;DHT22;2160;51.172;6.808;2022-12-31T22:47:19;18.30;99.90
4293;DHT22;2160;51.172;6.808;2022-12-31T22:49:46;18.20;99.90
4293;DHT22;2160;51.172;6.808;2022-12-31T22:52:13;18.30;99.90
4293;DHT22;2160;51.172;6.808;2022-12-31T22:54:40;18.30;99.90
4293;DHT22;2160;51.172;6.808;2022-12-31T22:57:07;18.30;99.90
4293;DHT22;2160;51.172;6.808;2022-12-31T22:59:36;18.30;99.90
4293;DHT22;2160;51.172;6.808;2022-12-31T23:02:02;18.30;99.90
4293;DHT22;2160;51.172;6.808;2022-12-31T23:04:29;18.20;99.90
4293;DHT22;2160;51.172;6.808;2022-12-31T23:06:56;18.10;99.90
4293;DHT22;2160;51.172;6.808;2022-12-31T23:09:24;18.00;99.90
4293;DHT22;2160;51.172;6.808;2022-12-31T23:12:09;18.10;99.90
4293;DHT22;2160;51.172;6.808;2022-12-31T23:14:37;18.20;99.90
4293;DHT22;2160;51.172;6.808;2022-12-31T23:17:23;18.30;99.90
4293;DHT22;2160;51.172;6.808;2022-12-31T23:20:11;18.30;99.90
4293;DHT22;2160;51.172;6.808;2022-12-31T23:22:56;18.30;99.90
4293;DHT22;2160;51.172;6.808;2022-12-31T23:25:35;18.30;99.90
4293;DHT22;2160;51.172;6.808;2022-12-31T23:28:03;18.30;99.90
4293;DHT22;2160;51.172;6.808;2022-12-31T23:30:32;18.10;99.90
4293;DHT22;2160;51.172;6.808;2022-12-31T23:32:59;18.30;99.90
4293;DHT22;2160;51.172;6.808;2022-12-31T23:35:26;18.20;99.90
4293;DHT22;2160;51.172;6.808;2022-12-31T23:37:53;18.30;99.90
4293;DHT22;2160;51.172;6.808;2022-12-31T23:40:20;18.30;99.90
4293;DHT22;2160;51.172;6.808;2022-12-31T23:42:47;18.30;99.90
4293;DHT22;2160;51.172;6.808;2022-12-31T23:45:15;18.20;99.90
4293;DHT22;2160;51.172;6.808;2022-12-31T23:47:43;18.30;99.90
4293;DHT22;2160;51.172;6.808;2022-12-31T23:50:10;18.30;99.90
4293;DHT22;2160;51.172;6.808;2022-12-31T23:52:37;18.20;99.90
4293;DHT22;2160;51.172;6.808;2022-12-31T23:55:04;18.30;99.90
4293;DHT22;2160;51.172;6.808;2022-12-31T23:57:31;18.30;99.90
4293;DHT22;2160;51.172;6.808;2022-12-31T23:59:58;18.40;99.90
